Time;durP1;ratioP1;P1;durP2;ratioP2;P2;SDS_P1;SDS_P2;PMS_P1;PMS_P2;Temp;Humidity;BMP_temperature;BMP_pressure;BME280_temperature;BME280_humidity;BME280_pressure;Samples;Min_cycle;Max_cycle;Signal;HPM_P1;HPM_P2
2023/05/20 00:00:51;;;;;;;1999.90;999.90;;;10.50;1.00;;;;;;5133706;27;20399;-76
2023/05/20 00:03:21;;;;;;;1999.90;999.90;;;10.50;1.00;;;;;;5132675;27;20089;-76
2023/05/20 00:05:47;;;;;;;1999.90;999.90;;;10.40;1.00;;;;;;5133581;27;20131;-76
2023/05/20 00:08:13;;;;;;;1999.90;999.90;;;10.40;1.00;;;;;;5132346;27;20133;-77
2023/05/20 00:10:40;;;;;;;1678.35;766.22;;;10.30;1.00;;;;;;5133497;27;20440;-76
2023/05/20 00:13:05;;;;;;;1999.90;999.90;;;10.30;1.00;;;;;;5115053;28;20062;-76
2023/05/20 00:15:32;;;;;;;1999.90;999.90;;;10.30;1.00;;;;;;5133097;27;20395;-76
2023/05/20 00:18:00;;;;;;;1999.90;999.90;;;10.30;1.00;;;;;;5133017;27;20047;-77
2023/05/20 00:20:25;;;;;;;1999.90;999.90;;;10.30;1.00;;;;;;5114699;28;20034;-77
2023/05/20 00:22:51;;;;;;;1999.90;999.90;;;10.30;1.00;;;;;;5114149;28;20047;-76
2023/05/20 00:25:17;;;;;;;1999.90;999.90;;;10.20;1.00;;;;;;5114428;28;20047;-77
2023/05/20 00:27:43;;;;;;;1999.90;999.90;;;10.20;1.00;;;;;;5114866;28;20487;-77
2023/05/20 00:30:09;;;;;;;1999.90;999.90;;;10.20;1.00;;;;;;5115117;28;20125;-77
2023/05/20 00:32:35;;;;;;;1999.90;999.90;;;10.20;1.00;;;;;;5132577;28;20050;-77
2023/05/20 00:35:02;;;;;;;1999.90;999.90;;;10.20;1.00;;;;;;5133146;28;20044;-77
2023/05/20 00:37:28;;;;;;;1999.90;999.90;;;10.10;1.00;;;;;;5113729;28;20063;-77
2023/05/20 00:39:54;;;;;;;1999.90;999.90;;;10.10;1.00;;;;;;5133134;27;20056;-76
2023/05/20 00:42:24;;;;;;;1999.90;999.90;;;10.10;1.00;;;;;;5132373;28;20035;-77
2023/05/20 00:44:50;;;;;;;1646.47;764.65;;;10.00;1.00;;;;;;5133337;28;20058;-77
2023/05/20 00:47:17;;;;;;;1999.90;999.90;;;10.00;1.00;;;;;;5132234;28;20566;-76
2023/05/20 00:49:44;;;;;;;1999.90;999.90;;;10.00;1.00;;;;;;5133030;28;20072;-76
2023/05/20 00:52:10;;;;;;;1999.90;999.90;;;10.00;1.00;;;;;;5132917;28;20058;-76
2023/05/20 00:54:36;;;;;;;1999.90;999.90;;;10.00;1.00;;;;;;5131770;27;20094;-76
2023/05/20 00:57:05;;;;;;;1999.90;999.90;;;10.10;1.00;;;;;;5136534;27;20049;-76
2023/05/20 00:59:31;;;;;;;1999.90;999.90;;;10.00;1.00;;;;;;5118139;27;20060;-76
2023/05/20 01:01:57;;;;;;;1627.05;765.88;;;10.00;1.00;;;;;;5118824;27;20083;-77
2023/05/20 01:04:23;;;;;;;1999.90;999.90;;;9.90;1.00;;;;;;5136278;27;20566;-76
2023/05/20 01:06:49;;;;;;;1999.90;999.90;;;10.10;1.00;;;;;;5136794;27;20039;-76
2023/05/20 01:09:15;;;;;;;1999.90;999.90;;;9.90;1.00;;;;;;5135709;27;20505;-77
2023/05/20 01:11:51;;;;;;;1059.85;91.07;;;9.90;1.00;;;;;;5118268;27;20035;-77
2023/05/20 01:14:19;;;;;;;1760.90;771.28;;;9.90;1.00;;;;;;5136090;27;20040;-77
2023/05/20 01:16:46;;;;;;;;;;;9.90;1.00;;;;;;5137105;27;20087;-77
2023/05/20 01:19:26;;;;;;;1999.90;999.90;;;9.80;1.00;;;;;;5136585;27;19919;-76
2023/05/20 01:21:53;;;;;;;1508.40;545.55;;;9.80;1.00;;;;;;5136544;27;20134;-77
2023/05/20 01:24:18;;;;;;;1519.80;542.90;;;9.80;1.00;;;;;;5135019;27;20066;-77
2023/05/20 01:26:47;;;;;;;1999.90;999.90;;;9.90;1.00;;;;;;5118101;27;20035;-77
2023/05/20 01:29:17;;;;;;;1999.90;999.90;;;9.80;1.00;;;;;;5136450;27;20062;-76
2023/05/20 01:31:46;;;;;;;1999.90;999.90;;;9.80;1.00;;;;;;5136050;27;20051;-76
2023/05/20 01:34:12;;;;;;;1999.90;999.90;;;9.90;1.00;;;;;;5117948;27;20501;-76
2023/05/20 01:36:39;;;;;;;1999.90;999.90;;;9.80;1.00;;;;;;5135976;27;20047;-76
2023/05/20 01:39:05;;;;;;;1999.90;999.90;;;9.80;1.00;;;;;;5135169;27;20050;-77
2023/05/20 01:41:33;;;;;;;1999.90;999.90;;;9.80;1.00;;;;;;5135357;27;20039;-77
2023/05/20 01:43:59;;;;;;;1999.90;999.90;;;9.80;1.00;;;;;;5135884;27;20043;-76
2023/05/20 01:46:25;;;;;;;1487.00;541.13;;;9.80;1.00;;;;;;5100840;27;20051;-77
2023/05/20 01:48:51;;;;;;;1260.05;533.45;;;9.80;1.00;;;;;;5117817;27;20123;-77
2023/05/20 01:51:16;;;;;;;1999.90;999.90;;;9.80;1.00;;;;;;5135823;27;20051;-77
2023/05/20 01:53:43;;;;;;;1999.90;999.90;;;9.80;1.00;;;;;;5134768;27;20246;-77
2023/05/20 01:56:08;;;;;;;1999.90;999.90;;;9.80;1.00;;;;;;5117676;27;20066;-76
2023/05/20 01:58:34;;;;;;;1999.90;999.90;;;9.80;1.00;;;;;;5135283;27;20035;-77
2023/05/20 02:01:00;;;;;;;1999.90;999.90;;;9.80;1.00;;;;;;5135717;27;20039;-77
2023/05/20 02:03:26;;;;;;;1999.90;999.90;;;9.90;1.00;;;;;;5135152;27;20149;-77
2023/05/20 02:05:51;;;;;;;1999.90;999.90;;;9.90;1.00;;;;;;5117735;27;20079;-77
2023/05/20 02:08:17;;;;;;;1999.90;999.90;;;9.90;1.00;;;;;;5133720;27;20047;-76
2023/05/20 02:10:42;;;;;;;1999.90;999.90;;;9.90;1.00;;;;;;5116884;27;20039;-76
2023/05/20 02:13:08;;;;;;;1999.90;999.90;;;9.80;1.00;;;;;;5117142;27;20131;-76
2023/05/20 02:15:34;;;;;;;1999.90;999.90;;;9.80;1.00;;;;;;5135306;27;20050;-76
2023/05/20 02:17:59;;;;;;;1314.60;525.25;;;9.90;1.00;;;;;;5116919;27;20134;-76
2023/05/20 02:20:25;;;;;;;1999.90;999.90;;;9.70;1.00;;;;;;5135250;27;20073;-76
2023/05/20 02:22:51;;;;;;;1999.90;999.90;;;9.70;1.00;;;;;;5099269;27;20091;-77
2023/05/20 02:25:16;;;;;;;1999.90;999.90;;;9.60;1.00;;;;;;5116955;27;20043;-77
2023/05/20 02:27:42;;;;;;;1999.90;999.90;;;9.60;1.00;;;;;;5134613;27;20153;-77
2023/05/20 02:30:09;;;;;;;1999.90;999.90;;;9.60;1.00;;;;;;5116882;27;20047;-77
2023/05/20 02:32:34;;;;;;;1999.90;999.90;;;9.50;1.00;;;;;;5134636;27;20078;-77
2023/05/20 02:35:00;;;;;;;1999.90;999.90;;;9.60;1.00;;;;;;5116778;27;20088;-77
2023/05/20 02:37:27;;;;;;;1365.28;526.85;;;9.50;1.00;;;;;;5133547;27;20126;-76
2023/05/20 02:39:54;;;;;;;1999.90;999.90;;;9.50;1.00;;;;;;5134863;27;20046;-76
2023/05/20 02:42:20;;;;;;;1999.90;999.90;;;9.50;1.00;;;;;;5134789;27;20050;-79
2023/05/20 02:44:46;;;;;;;1999.90;999.90;;;9.50;1.00;;;;;;5134856;27;20043;-76
2023/05/20 02:47:13;;;;;;;1999.90;999.90;;;9.50;1.00;;;;;;5116750;27;20435;-77
2023/05/20 02:49:38;;;;;;;1355.55;522.28;;;9.70;1.00;;;;;;5134177;27;20064;-76
2023/05/20 02:52:04;;;;;;;1999.90;999.90;;;9.80;1.00;;;;;;5116022;27;20520;-77
2023/05/20 02:54:30;;;;;;;1290.30;522.10;;;9.70;1.00;;;;;;5133511;27;20051;-77
2023/05/20 02:56:56;;;;;;;1655.47;762.70;;;9.70;1.00;;;;;;5116353;27;20058;-77
2023/05/20 02:59:21;;;;;;;1999.90;999.90;;;9.80;1.00;;;;;;5134327;27;20045;-79
2023/05/20 03:01:47;;;;;;;1999.90;999.90;;;9.80;1.00;;;;;;5115922;27;20403;-76
2023/05/20 03:04:13;;;;;;;1999.90;999.90;;;9.90;1.00;;;;;;5134490;27;20066;-76
2023/05/20 03:06:43;;;;;;;1331.55;524.13;;;9.80;1.00;;;;;;5133907;27;20046;-77
2023/05/20 03:09:08;;;;;;;1158.93;519.35;;;9.70;1.00;;;;;;5133890;27;20086;-76
2023/05/20 03:11:34;;;;;;;970.97;288.02;;;9.80;1.00;;;;;;5133956;27;20039;-77
2023/05/20 03:14:00;;;;;;;1578.38;757.92;;;9.80;1.00;;;;;;5115784;27;20047;-76
2023/05/20 03:16:26;;;;;;;1999.90;999.90;;;9.90;1.00;;;;;;5134022;27;20112;-76
2023/05/20 03:18:53;;;;;;;1999.90;999.90;;;9.90;1.00;;;;;;5133553;27;20522;-76
2023/05/20 03:21:19;;;;;;;1999.90;999.90;;;10.00;1.00;;;;;;5134480;27;20043;-76
2023/05/20 03:23:45;;;;;;;1999.90;999.90;;;9.90;1.00;;;;;;5132586;27;20566;-76
2023/05/20 03:26:10;;;;;;;1999.90;999.90;;;9.90;1.00;;;;;;5134334;27;20046;-76
2023/05/20 03:28:36;;;;;;;1999.90;999.90;;;9.90;1.00;;;;;;5115022;27;20121;-76
2023/05/20 03:31:03;;;;;;;1157.75;518.15;;;9.90;1.00;;;;;;5115853;27;20039;-76
2023/05/20 03:33:30;;;;;;;1999.90;999.90;;;9.80;1.00;;;;;;5133425;27;20047;-77
2023/05/20 03:35:55;;;;;;;1999.90;999.90;;;9.90;1.00;;;;;;5134025;27;20058;-76
2023/05/20 03:38:21;;;;;;;1999.90;999.90;;;9.70;1.00;;;;;;5132838;27;20043;-76
2023/05/20 03:40:47;;;;;;;1999.90;999.90;;;9.70;1.00;;;;;;5115256;27;20051;-76
2023/05/20 03:43:12;;;;;;;1629.95;759.83;;;9.80;1.00;;;;;;5115630;27;20043;-76
2023/05/20 03:45:38;;;;;;;1999.90;999.90;;;9.60;1.00;;;;;;5133426;27;20131;-76
2023/05/20 03:48:04;;;;;;;1999.90;999.90;;;9.70;1.00;;;;;;5133333;27;20054;-77
2023/05/20 03:50:30;;;;;;;1999.90;999.90;;;9.70;1.00;;;;;;5132951;27;20051;-77
2023/05/20 03:52:55;;;;;;;1999.90;999.90;;;9.80;1.00;;;;;;5132356;27;20460;-76
2023/05/20 03:55:21;;;;;;;1999.90;999.90;;;9.80;1.00;;;;;;5133473;27;20050;-76
2023/05/20 03:57:47;;;;;;;1999.90;999.90;;;9.80;1.00;;;;;;5131761;27;20081;-76
2023/05/20 04:00:13;;;;;;;872.05;56.60;;;9.80;1.00;;;;;;5133145;27;20088;-77
2023/05/20 04:02:39;;;;;;;1703.07;765.95;;;9.80;1.00;;;;;;5132906;27;20057;-77
2023/05/20 04:05:07;;;;;;;1999.90;999.90;;;9.80;1.00;;;;;;5133544;27;20122;-77
2023/05/20 04:07:33;;;;;;;1719.95;767.28;;;9.90;1.00;;;;;;5132032;27;20489;-77
2023/05/20 04:09:59;;;;;;;1999.90;999.90;;;9.90;1.00;;;;;;5115297;28;20051;-76
2023/05/20 04:12:29;;;;;;;1999.90;999.90;;;9.90;1.00;;;;;;5133125;27;20046;-76
2023/05/20 04:14:57;;;;;;;1227.40;292.45;;;10.00;1.00;;;;;;5133502;27;20092;-76
2023/05/20 04:17:22;;;;;;;1999.90;999.90;;;10.00;1.00;;;;;;5133340;27;20050;-77
2023/05/20 04:19:48;;;;;;;599.40;39.85;;;10.00;1.00;;;;;;5133027;27;20120;-76
2023/05/20 04:22:14;;;;;;;1145.03;512.17;;;10.00;1.00;;;;;;5115395;28;20073;-76
2023/05/20 04:24:39;;;;;;;1999.90;999.90;;;9.90;1.00;;;;;;5131998;28;20070;-76
2023/05/20 04:27:05;;;;;;;1999.90;999.90;;;10.00;1.00;;;;;;5115144;28;20043;-76
2023/05/20 04:29:33;;;;;;;1999.90;999.90;;;10.00;1.00;;;;;;5132859;27;20051;-78
2023/05/20 04:31:59;;;;;;;1999.90;999.90;;;10.10;1.00;;;;;;5137379;27;20144;-76
2023/05/20 04:34:28;;;;;;;1999.90;999.90;;;10.10;1.00;;;;;;5137316;27;20046;-76
2023/05/20 04:36:54;;;;;;;1999.90;999.90;;;10.30;1.00;;;;;;5137012;27;20054;-76
2023/05/20 04:39:20;;;;;;;1999.90;999.90;;;10.30;1.00;;;;;;5118328;27;20043;-76
2023/05/20 04:41:47;;;;;;;1999.90;999.90;;;10.40;1.00;;;;;;5118760;27;20054;-76
2023/05/20 04:44:13;;;;;;;1999.90;999.90;;;10.60;1.00;;;;;;5119208;27;20043;-77
2023/05/20 04:46:40;;;;;;;1999.90;999.90;;;;;;;;;;5118489;27;20540;-76
2023/05/20 04:49:06;;;;;;;1999.90;999.90;;;10.70;1.00;;;;;;5136774;27;20046;-76
2023/05/20 04:51:33;;;;;;;1705.22;766.92;;;10.90;1.00;;;;;;5118565;27;20062;-77
2023/05/20 04:53:58;;;;;;;1999.90;999.90;;;10.90;1.00;;;;;;5117963;27;20094;-76
2023/05/20 04:56:24;;;;;;;1999.90;999.90;;;11.00;1.00;;;;;;5137233;27;20078;-76
2023/05/20 04:58:50;;;;;;;1999.90;999.90;;;11.20;1.00;;;;;;5136469;27;20043;-76
2023/05/20 05:01:16;;;;;;;1999.90;999.90;;;11.30;1.00;;;;;;5118620;27;20437;-76
2023/05/20 05:03:41;;;;;;;1999.90;999.90;;;11.50;1.00;;;;;;5136254;27;20130;-76
2023/05/20 05:06:07;;;;;;;1999.90;999.90;;;11.60;1.00;;;;;;5136954;27;20051;-76
2023/05/20 05:08:33;;;;;;;1603.30;756.38;;;11.70;1.00;;;;;;5135957;27;20096;-76
2023/05/20 05:10:58;;;;;;;1622.93;759.33;;;11.70;1.00;;;;;;5136490;27;20486;-76
2023/05/20 05:13:24;;;;;;;1999.90;999.90;;;11.70;1.00;;;;;;5136553;27;20471;-77
2023/05/20 05:16:00;;;;;;;1999.90;999.90;;;11.70;1.00;;;;;;5136389;27;20047;-77
2023/05/20 05:18:26;;;;;;;1999.90;999.90;;;11.70;1.00;;;;;;5118144;27;20047;-77
2023/05/20 05:21:17;;;;;;;1999.90;999.90;;;11.70;1.00;;;;;;5136176;27;20084;-77
2023/05/20 05:23:43;;;;;;;1999.90;999.90;;;11.60;1.00;;;;;;5133150;27;20101;-77
2023/05/20 05:26:09;;;;;;;1999.90;999.90;;;11.60;1.00;;;;;;5118395;27;20082;-77
2023/05/20 05:28:35;;;;;;;1999.90;999.90;;;11.50;1.00;;;;;;5136267;27;20047;-77
2023/05/20 05:31:01;;;;;;;1999.90;999.90;;;11.60;1.00;;;;;;5135971;27;20065;-78
2023/05/20 05:33:27;;;;;;;1999.90;999.90;;;11.60;1.00;;;;;;5118066;27;20468;-77
2023/05/20 05:35:52;;;;;;;1999.90;999.90;;;11.70;1.00;;;;;;5117742;27;20039;-77
2023/05/20 05:38:18;;;;;;;1999.90;999.90;;;11.80;1.00;;;;;;5144512;27;20039;-76
2023/05/20 05:40:44;;;;;;;1999.90;999.90;;;11.90;1.00;;;;;;5128816;27;20050;-77
2023/05/20 05:43:10;;;;;;;1999.90;999.90;;;12.10;1.00;;;;;;5127543;27;20086;-78
2023/05/20 05:45:35;;;;;;;1999.90;999.90;;;12.00;1.00;;;;;;5138383;27;20039;-78
2023/05/20 05:48:01;;;;;;;1999.90;999.90;;;12.10;1.00;;;;;;5135787;27;20164;-77
2023/05/20 05:50:27;;;;;;;1999.90;999.90;;;12.20;1.00;;;;;;5136088;27;20073;-77
2023/05/20 05:52:53;;;;;;;1999.90;999.90;;;12.20;1.00;;;;;;5135185;27;20055;-77
2023/05/20 05:55:18;;;;;;;1999.90;999.90;;;12.30;1.00;;;;;;5084217;27;20039;-77
2023/05/20 05:57:44;;;;;;;1999.90;999.90;;;12.30;1.00;;;;;;5135739;27;20051;-77
2023/05/20 06:00:10;;;;;;;1999.90;999.90;;;12.30;1.00;;;;;;5135603;27;20039;-77
2023/05/20 06:02:36;;;;;;;1999.90;999.90;;;12.30;1.00;;;;;;5136028;27;20043;-77
2023/05/20 06:05:03;;;;;;;1999.90;999.90;;;12.30;1.00;;;;;;5135674;27;20477;-77
2023/05/20 06:07:28;;;;;;;1999.90;999.90;;;12.30;1.00;;;;;;5134911;27;20043;-78
2023/05/20 06:09:54;;;;;;;1999.90;999.90;;;12.30;1.00;;;;;;5135322;27;20046;-77
2023/05/20 06:12:20;;;;;;;1999.90;999.90;;;12.30;1.00;;;;;;5135148;27;20041;-77
2023/05/20 06:14:46;;;;;;;1999.90;999.90;;;12.40;1.00;;;;;;5117058;27;20047;-77
2023/05/20 06:17:12;;;;;;;1999.90;999.90;;;12.40;1.00;;;;;;5135511;27;20046;-77
2023/05/20 06:19:37;;;;;;;1999.90;999.90;;;12.40;1.00;;;;;;5117392;27;20395;-76
2023/05/20 06:22:03;;;;;;;1999.90;999.90;;;12.50;1.00;;;;;;5135526;27;20132;-77
2023/05/20 06:24:29;;;;;;;1999.90;999.90;;;12.50;1.00;;;;;;5134800;27;20039;-77
2023/05/20 06:26:55;;;;;;;1999.90;999.90;;;12.60;1.00;;;;;;5134676;27;20043;-77
2023/05/20 06:29:21;;;;;;;1999.90;999.90;;;12.60;1.00;;;;;;5134898;27;20047;-77
2023/05/20 06:31:47;;;;;;;1999.90;999.90;;;12.90;1.00;;;;;;5134976;27;20091;-77
2023/05/20 06:34:13;;;;;;;1999.90;999.90;;;12.80;1.00;;;;;;5135489;27;20047;-77
2023/05/20 06:36:39;;;;;;;1999.90;999.90;;;12.90;1.00;;;;;;5116713;27;20448;-77
2023/05/20 06:39:10;;;;;;;1999.90;999.90;;;13.00;1.00;;;;;;5133836;27;20051;-76
2023/05/20 06:41:35;;;;;;;1999.90;999.90;;;13.10;1.00;;;;;;5127602;27;20474;-77
2023/05/20 06:44:01;;;;;;;1999.90;999.90;;;13.10;1.00;;;;;;5134353;27;20126;-76
2023/05/20 06:46:27;;;;;;;1999.90;999.90;;;13.20;1.00;;;;;;5135042;27;20043;-76
2023/05/20 06:48:53;;;;;;;1999.90;999.90;;;13.30;1.00;;;;;;5134217;27;20051;-76
2023/05/20 06:51:18;;;;;;;1999.90;999.90;;;13.40;1.00;;;;;;5134709;27;20043;-76
2023/05/20 06:53:44;;;;;;;1999.90;999.90;;;13.40;1.00;;;;;;5133240;27;20097;-80
2023/05/20 06:56:10;;;;;;;1999.90;999.90;;;13.60;1.00;;;;;;5134497;27;20111;-77
2023/05/20 06:58:35;;;;;;;1999.90;999.90;;;13.70;1.00;;;;;;5134496;27;20058;-76
2023/05/20 07:01:01;;;;;;;1999.90;999.90;;;13.80;1.00;;;;;;5134095;27;20051;-77
2023/05/20 07:03:26;;;;;;;1999.90;999.90;;;14.40;1.00;;;;;;5134514;27;20046;-78
2023/05/20 07:05:52;;;;;;;1999.90;999.90;;;15.90;1.00;;;;;;5134271;27;20122;-77
2023/05/20 07:08:18;;;;;;;1999.90;999.90;;;17.80;99.90;;;;;;5115238;27;20047;-77
2023/05/20 07:10:45;;;;;;;1999.90;999.90;;;19.20;99.90;;;;;;5134728;27;20384;-77
2023/05/20 07:13:11;;;;;;;1999.90;999.90;;;20.70;99.90;;;;;;5134044;27;20039;-77
2023/05/20 07:15:37;;;;;;;1999.90;999.90;;;22.20;99.90;;;;;;5116205;27;20069;-77
2023/05/20 07:18:03;;;;;;;1999.90;685.97;;;23.10;99.90;;;;;;5133681;27;20099;-77
2023/05/20 07:20:28;;;;;;;1999.90;847.05;;;24.20;99.90;;;;;;5134362;27;20127;-77
2023/05/20 07:22:54;;;;;;;1999.90;999.90;;;25.10;99.90;;;;;;5132962;27;20043;-78
2023/05/20 07:25:20;;;;;;;1999.90;999.90;;;25.60;99.90;;;;;;5115932;27;20039;-77
2023/05/20 07:27:46;;;;;;;1999.90;999.90;;;26.20;99.90;;;;;;5133740;27;20051;-78
2023/05/20 07:30:12;;;;;;;1999.90;999.90;;;26.60;99.90;;;;;;5115362;27;20099;-77
2023/05/20 07:32:39;;;;;;;1999.90;999.90;;;26.90;99.90;;;;;;5133855;27;20039;-77
2023/05/20 07:35:05;;;;;;;1999.90;999.90;;;27.10;99.90;;;;;;5133328;27;20483;-78
2023/05/20 07:37:31;;;;;;;1999.90;999.90;;;27.00;99.90;;;;;;5132977;27;20047;-77
2023/05/20 07:39:56;;;;;;;1999.90;999.90;;;27.50;99.90;;;;;;5133166;27;20070;-77
2023/05/20 07:42:22;;;;;;;1999.90;999.90;;;27.50;99.90;;;;;;5133685;27;20050;-77
2023/05/20 07:44:47;;;;;;;1999.90;999.90;;;27.70;99.90;;;;;;5115436;27;20043;-76
2023/05/20 07:47:13;;;;;;;1999.90;999.90;;;28.00;99.90;;;;;;5133354;27;20068;-77
2023/05/20 07:49:39;;;;;;;1999.90;999.90;;;28.20;99.90;;;;;;5115490;27;20078;-78
2023/05/20 07:52:05;;;;;;;1999.90;999.90;;;28.30;99.90;;;;;;5132981;27;20059;-77
2023/05/20 07:54:30;;;;;;;1999.90;999.90;;;28.70;99.90;;;;;;5132953;27;20051;-77
2023/05/20 07:56:56;;;;;;;1999.90;999.90;;;29.20;99.90;;;;;;5133104;27;20047;-77
2023/05/20 07:59:22;;;;;;;1999.90;999.90;;;29.40;99.90;;;;;;5098269;27;20054;-77
2023/05/20 08:01:48;;;;;;;1999.90;999.90;;;29.60;99.90;;;;;;5115281;27;20039;-77
2023/05/20 08:04:14;;;;;;;1999.90;999.90;;;29.70;99.90;;;;;;5114589;27;20043;-77
2023/05/20 08:06:40;;;;;;;1999.90;999.90;;;30.10;99.90;;;;;;5133015;27;20054;-77
2023/05/20 08:09:06;;;;;;;1999.90;999.90;;;30.20;99.90;;;;;;5114100;27;20441;-77
2023/05/20 08:11:31;;;;;;;1999.90;999.90;;;30.40;99.90;;;;;;5133313;27;20079;-77
2023/05/20 08:13:57;;;;;;;1999.90;999.90;;;30.50;99.90;;;;;;5114615;27;20175;-76
2023/05/20 08:16:23;;;;;;;1999.90;999.90;;;30.40;99.90;;;;;;5115303;27;20390;-77
2023/05/20 08:18:48;;;;;;;1999.90;999.90;;;30.70;99.90;;;;;;5114835;28;20078;-77
2023/05/20 08:21:14;;;;;;;1999.90;999.90;;;30.90;99.90;;;;;;5133075;27;20043;-77
2023/05/20 08:23:40;;;;;;;1999.90;999.90;;;31.00;99.90;;;;;;5114063;28;20399;-77
2023/05/20 08:26:06;;;;;;;1999.90;999.90;;;30.80;99.90;;;;;;5132677;28;20047;-77
2023/05/20 08:28:32;;;;;;;1999.90;999.90;;;31.20;99.90;;;;;;5132966;28;20055;-77
2023/05/20 08:31:00;;;;;;;1999.90;999.90;;;31.20;99.90;;;;;;5132820;28;20483;-77
2023/05/20 08:33:26;;;;;;;1999.90;999.90;;;31.60;99.90;;;;;;5114848;28;20409;-77
2023/05/20 08:35:52;;;;;;;1999.90;999.90;;;31.50;99.90;;;;;;5115056;28;20126;-77
2023/05/20 08:38:17;;;;;;;1999.90;999.90;;;32.10;99.90;;;;;;5113773;28;20092;-78
2023/05/20 08:40:43;;;;;;;1999.90;999.90;;;32.00;99.90;;;;;;5139836;27;20379;-76
2023/05/20 08:43:09;;;;;;;1999.90;999.90;;;32.30;99.90;;;;;;5134971;27;20043;-77
2023/05/20 08:45:37;;;;;;;1999.90;999.90;;;32.20;99.90;;;;;;5153939;27;20050;-78
2023/05/20 08:48:04;;;;;;;1999.90;999.90;;;32.50;99.90;;;;;;5153272;27;20059;-78
2023/05/20 08:50:30;;;;;;;1999.90;999.90;;;32.50;99.90;;;;;;5153540;27;20498;-78
2023/05/20 08:52:56;;;;;;;1999.90;999.90;;;33.00;99.90;;;;;;5152903;27;20089;-78
2023/05/20 08:55:42;;;;;;;1999.90;999.90;;;32.40;99.90;;;;;;5118247;27;20440;-78
2023/05/20 08:58:11;;;;;;;1999.90;999.90;;;32.20;99.90;;;;;;5152982;27;20058;-78
2023/05/20 09:00:37;;;;;;;1999.90;999.90;;;32.20;99.90;;;;;;5153831;27;20051;-78
2023/05/20 09:03:04;;;;;;;1999.90;999.90;;;32.40;99.90;;;;;;5153086;27;20558;-78
2023/05/20 09:05:30;;;;;;;1999.90;999.90;;;32.60;99.90;;;;;;5153756;27;20115;-78
2023/05/20 09:08:06;;;;;;;1999.90;999.90;;;32.80;99.90;;;;;;5134228;27;20180;-78
2023/05/20 09:10:33;;;;;;;1999.90;999.90;;;33.00;99.90;;;;;;5153695;27;20134;-78
2023/05/20 09:13:03;;;;;;;1999.90;999.90;;;33.10;99.90;;;;;;5153313;27;20471;-81
2023/05/20 09:15:30;;;;;;;1999.90;999.90;;;33.30;99.90;;;;;;5153462;27;20046;-78
2023/05/20 09:18:02;;;;;;;1999.90;999.90;;;33.50;99.90;;;;;;5121604;27;20089;-78
2023/05/20 09:20:28;;;;;;;1999.90;999.90;;;33.40;99.90;;;;;;5157190;27;20317;-78
2023/05/20 09:22:58;;;;;;;1999.90;999.90;;;33.40;99.90;;;;;;5156601;27;20386;-79
2023/05/20 09:25:24;;;;;;;1999.90;999.90;;;33.60;99.90;;;;;;5156855;27;20078;-79
2023/05/20 09:27:50;;;;;;;1999.90;999.90;;;33.40;99.90;;;;;;5157087;27;20131;-78
2023/05/20 09:30:19;;;;;;;1999.90;999.90;;;33.70;99.90;;;;;;5156763;27;20046;-78
2023/05/20 09:32:51;;;;;;;1999.90;999.90;;;34.10;99.90;;;;;;5138132;27;20482;-79
2023/05/20 09:35:18;;;;;;;1999.90;999.90;;;34.30;99.90;;;;;;5156822;27;20142;-78
2023/05/20 09:37:46;;;;;;;1999.90;999.90;;;34.30;99.90;;;;;;5137543;27;20043;-79
2023/05/20 09:40:14;;;;;;;1999.90;999.90;;;34.00;99.90;;;;;;5156366;27;20046;-78
2023/05/20 09:42:58;;;;;;;1999.90;999.90;;;34.30;99.90;;;;;;5138481;27;20053;-79
2023/05/20 09:45:24;;;;;;;1999.90;999.90;;;34.50;99.90;;;;;;5156510;27;20095;-79
2023/05/20 09:47:51;;;;;;;1999.90;999.90;;;34.50;99.90;;;;;;5138509;27;20498;-78
2023/05/20 09:50:22;;;;;;;1999.90;999.90;;;34.00;99.90;;;;;;5156301;27;20039;-79
2023/05/20 09:52:49;;;;;;;1999.90;999.90;;;34.30;99.90;;;;;;5137810;27;20055;-79
2023/05/20 09:55:21;;;;;;;1999.90;999.90;;;33.90;99.90;;;;;;5156130;27;20512;-79
2023/05/20 09:57:47;;;;;;;1999.90;999.90;;;34.10;99.90;;;;;;5156497;27;20042;-79
2023/05/20 10:00:16;;;;;;;1999.90;999.90;;;34.00;99.90;;;;;;5156271;27;20478;-79
2023/05/20 10:02:44;;;;;;;1999.90;999.90;;;33.50;99.90;;;;;;5156288;27;20061;-76
2023/05/20 10:05:16;;;;;;;1999.90;999.90;;;33.40;99.90;;;;;;5156581;27;20050;-76
2023/05/20 10:08:01;;;;;;;1999.90;999.90;;;33.20;99.90;;;;;;5155442;27;20465;-78
2023/05/20 10:10:39;;;;;;;1999.90;999.90;;;32.50;99.90;;;;;;5156021;27;20050;-78
2023/05/20 10:13:13;;;;;;;1999.90;999.90;;;32.20;99.90;;;;;;5137883;27;20043;-78
2023/05/20 10:16:05;;;;;;;1999.90;999.90;;;31.90;99.90;;;;;;5156231;27;20137;-78
2023/05/20 10:18:55;;;;;;;1999.90;999.90;;;32.20;99.90;;;;;;5150757;27;20273;-78
2023/05/20 10:21:23;;;;;;;1999.90;999.90;;;32.70;99.90;;;;;;5155679;27;20078;-77
2023/05/20 10:23:50;;;;;;;1999.90;999.90;;;33.40;99.90;;;;;;5155282;27;20054;-77
2023/05/20 10:26:16;;;;;;;;;;;33.40;99.90;;;;;;5138256;27;20042;-78
2023/05/20 10:28:42;;;;;;;1999.90;999.90;;;32.60;99.90;;;;;;5154962;27;20327;-77
2023/05/20 10:31:22;;;;;;;1999.90;999.90;;;32.30;99.90;;;;;;5155832;27;20039;-82
2023/05/20 10:33:52;;;;;;;1999.90;999.90;;;32.20;99.90;;;;;;5155933;27;20046;-78
2023/05/20 10:36:30;;;;;;;1999.90;999.90;;;32.70;99.90;;;;;;5155977;27;20122;-77
2023/05/20 10:38:58;;;;;;;1999.90;999.90;;;32.30;99.90;;;;;;5109788;27;20042;-76
2023/05/20 10:41:25;;;;;;;;;;;32.60;99.90;;;;;;5126123;27;20107;-77
2023/05/20 10:44:02;;;;;;;1999.90;999.90;;;32.60;99.90;;;;;;5134581;27;20371;-77
2023/05/20 10:46:28;;;;;;;1999.90;999.90;;;33.00;99.90;;;;;;5134370;27;20630;-77
2023/05/20 10:48:54;;;;;;;1999.90;999.90;;;33.00;99.90;;;;;;5134617;27;20050;-77
2023/05/20 10:51:20;;;;;;;1999.90;999.90;;;32.70;99.90;;;;;;5082163;27;20670;-77
2023/05/20 10:53:46;;;;;;;1999.90;999.90;;;32.10;99.90;;;;;;5134371;27;20107;-77
2023/05/20 10:56:22;;;;;;;1999.90;999.90;;;31.40;99.90;;;;;;5134457;27;20043;-77
2023/05/20 10:58:49;;;;;;;1999.90;999.90;;;30.70;99.90;;;;;;5134771;27;20043;-77
2023/05/20 11:01:17;;;;;;;1999.90;999.90;;;31.40;99.90;;;;;;5134786;27;20441;-77
2023/05/20 11:03:45;;;;;;;1999.90;999.90;;;31.90;99.90;;;;;;5134571;27;20062;-77
2023/05/20 11:06:16;;;;;;;1999.90;999.90;;;32.60;99.90;;;;;;5134789;27;20047;-81
2023/05/20 11:08:43;;;;;;;1999.90;999.90;;;32.70;99.90;;;;;;5133872;27;20043;-78
2023/05/20 11:11:13;;;;;;;1999.90;999.90;;;32.00;99.90;;;;;;5134685;27;20036;-78
2023/05/20 11:13:40;;;;;;;1999.90;999.90;;;31.60;99.90;;;;;;5134264;27;20099;-78
2023/05/20 11:16:06;;;;;;;1999.90;999.90;;;31.10;99.90;;;;;;5116297;27;20058;-77
2023/05/20 11:18:32;;;;;;;1999.90;999.90;;;30.70;99.90;;;;;;5134176;27;20043;-77
2023/05/20 11:21:01;;;;;;;1999.90;999.90;;;30.30;99.90;;;;;;5116400;27;20051;-78
2023/05/20 11:23:28;;;;;;;1999.90;999.90;;;29.90;99.90;;;;;;5133318;27;20538;-78
2023/05/20 11:25:56;;;;;;;1999.90;999.90;;;30.10;99.90;;;;;;5134297;27;20047;-78
2023/05/20 11:28:22;;;;;;;1999.90;999.90;;;30.60;99.90;;;;;;5125572;27;20047;-78
2023/05/20 11:30:50;;;;;;;1999.90;999.90;;;30.80;99.90;;;;;;5144102;27;20081;-77
2023/05/20 11:33:17;;;;;;;1999.90;999.90;;;31.00;99.90;;;;;;5148532;27;20042;-77
2023/05/20 11:35:51;;;;;;;1999.90;999.90;;;30.60;99.90;;;;;;5147829;27;20060;-76
2023/05/20 11:38:18;;;;;;;1739.57;808.28;;;30.80;99.90;;;;;;5143760;27;20053;-77
2023/05/20 11:40:45;;;;;;;1999.90;999.90;;;31.20;99.90;;;;;;5145387;27;20100;-77
2023/05/20 11:43:13;;;;;;;1999.90;851.35;;;31.70;99.90;;;;;;5146064;27;20053;-79
2023/05/20 11:45:42;;;;;;;;;;;32.00;99.90;;;;;;5144050;27;20043;-77
2023/05/20 11:48:10;;;;;;;1999.90;999.90;;;31.80;99.90;;;;;;5149844;27;19971;-77
2023/05/20 11:50:44;;;;;;;1999.90;999.90;;;32.30;99.90;;;;;;5128175;27;20063;-79
2023/05/20 11:53:16;;;;;;;1999.90;999.90;;;32.60;99.90;;;;;;5108936;27;20047;-77
2023/05/20 11:55:47;;;;;;;1999.90;999.90;;;33.40;99.90;;;;;;5159604;27;20098;-78
2023/05/20 11:58:18;;;;;;;1999.90;999.90;;;33.10;99.90;;;;;;5141099;27;20948;-79
2023/05/20 12:00:45;;;;;;;1999.90;999.90;;;31.70;99.90;;;;;;5133343;27;20057;-77
2023/05/20 12:03:11;;;;;;;1999.90;999.90;;;30.80;99.90;;;;;;5122923;27;20042;-79
2023/05/20 12:05:37;;;;;;;1999.90;999.90;;;30.30;99.90;;;;;;5140331;27;20037;-78
2023/05/20 12:08:03;;;;;;;1999.90;999.90;;;30.40;99.90;;;;;;5121635;27;20444;-78